Time;durP1;ratioP1;P1;durP2;ratioP2;P2;SDS_P1;SDS_P2;PMS_P1;PMS_P2;Temp;Humidity;BMP_temperature;BMP_pressure;BME280_temperature;BME280_humidity;BME280_pressure;Samples;Min_cycle;Max_cycle;Signal;HPM_P1;HPM_P2
2022/04/30 00:02:07;;;;;;;6.20;4.00;;;9.20;99.90;;;;;;4924161;29;20185;-79
2022/04/30 00:04:37;;;;;;;7.87;4.00;;;9.20;99.90;;;;;;4939306;29;20194;-79
2022/04/30 00:07:04;;;;;;;7.07;4.80;;;9.30;99.90;;;;;;4938203;29;20229;-79
2022/04/30 00:09:30;;;;;;;8.70;4.60;;;9.30;99.90;;;;;;4939682;29;20170;-78
2022/04/30 00:11:56;;;;;;;9.50;4.30;;;9.30;99.90;;;;;;4939352;29;20213;-78
2022/04/30 00:14:23;;;;;;;7.13;3.97;;;9.30;99.90;;;;;;4939414;29;20190;-79
2022/04/30 00:16:48;;;;;;;8.20;4.10;;;9.30;99.90;;;;;;4938719;29;20174;-78
2022/04/30 00:19:16;;;;;;;9.33;4.13;;;9.20;99.90;;;;;;4939419;29;20184;-78
2022/04/30 00:21:43;;;;;;;4.53;3.60;;;9.30;99.90;;;;;;4938766;29;20193;-78
2022/04/30 00:24:12;;;;;;;7.03;3.93;;;9.30;99.90;;;;;;4936979;29;20181;-78
2022/04/30 00:26:39;;;;;;;8.23;3.80;;;9.30;99.90;;;;;;4939443;29;20218;-78
2022/04/30 00:29:05;;;;;;;6.27;3.80;;;9.20;99.90;;;;;;4939204;29;20185;-78
2022/04/30 00:31:31;;;;;;;6.93;3.53;;;9.30;99.90;;;;;;4938816;29;20221;-79
2022/04/30 00:33:56;;;;;;;6.97;3.70;;;9.20;99.90;;;;;;4938080;29;20188;-78
2022/04/30 00:36:23;;;;;;;5.47;3.90;;;9.20;99.90;;;;;;4920567;29;20257;-78
2022/04/30 00:38:48;;;;;;;9.43;3.90;;;9.10;99.90;;;;;;4919684;29;20178;-78
2022/04/30 00:41:17;;;;;;;7.37;4.17;;;9.10;99.90;;;;;;4920038;29;20186;-78
2022/04/30 00:43:47;;;;;;;7.17;3.87;;;9.00;99.90;;;;;;4920064;29;20261;-78
2022/04/30 00:46:14;;;;;;;6.20;3.53;;;9.00;99.90;;;;;;4936827;29;20240;-79
2022/04/30 00:51:22;;;;;;;12.40;3.80;;;9.10;99.90;;;;;;5303798;23;20249;-83
2022/04/30 00:53:52;;;;;;;9.37;4.03;;;9.00;99.90;;;;;;4938627;29;20511;-81
2022/04/30 00:56:45;;;;;;;10.60;4.27;;;9.00;99.90;;;;;;4943394;29;20640;-82
2022/04/30 00:59:17;;;;;;;9.13;3.87;;;9.00;99.90;;;;;;4944774;29;20600;-83
2022/04/30 01:01:59;;;;;;;8.97;4.13;;;8.90;99.90;;;;;;4954252;28;20260;-83
2022/04/30 01:04:27;;;;;;;9.57;3.90;;;8.80;99.90;;;;;;4957798;28;20185;-82
2022/04/30 01:06:57;;;;;;;9.97;4.37;;;8.80;99.90;;;;;;4940002;29;20200;-81
2022/04/30 01:09:29;;;;;;;7.77;3.83;;;8.80;99.90;;;;;;4957892;28;20177;-82
2022/04/30 01:12:10;;;;;;;10.07;4.73;;;8.80;99.90;;;;;;4956143;29;20213;-82
2022/04/30 01:14:39;;;;;;;6.27;4.00;;;8.70;99.90;;;;;;4957674;28;20185;-82
2022/04/30 01:17:09;;;;;;;6.80;3.90;;;8.80;99.90;;;;;;4956436;28;20695;-82
2022/04/30 01:19:37;;;;;;;10.87;4.30;;;8.80;99.90;;;;;;4957157;28;20233;-82
2022/04/30 01:22:27;;;;;;;7.20;4.03;;;8.80;99.90;;;;;;4955855;29;20531;-82
2022/04/30 01:24:57;;;;;;;9.77;4.33;;;8.90;99.90;;;;;;4957603;28;20173;-83
2022/04/30 01:27:26;;;;;;;7.73;4.10;;;8.80;99.90;;;;;;4957429;28;20209;-83
2022/04/30 01:29:53;;;;;;;13.93;4.90;;;8.70;99.90;;;;;;4956014;29;20191;-83
2022/04/30 01:38:02;;;;;;;14.53;4.60;;;8.70;99.90;;;;;;4957472;29;20271;-82
2022/04/30 01:40:30;;;;;;;7.53;4.40;;;8.60;99.90;;;;;;4957099;28;20185;-82
2022/04/30 01:42:59;;;;;;;10.27;4.50;;;8.60;99.90;;;;;;4957115;28;20181;-84
2022/04/30 01:45:26;;;;;;;9.07;4.53;;;8.60;99.90;;;;;;4955591;29;20197;-83
2022/04/30 01:47:54;;;;;;;9.63;4.57;;;8.60;99.90;;;;;;4956694;28;20194;-82
2022/04/30 01:50:21;;;;;;;8.17;3.90;;;8.50;99.90;;;;;;4956776;28;20229;-83
2022/04/30 01:52:47;;;;;;;6.33;4.53;;;8.50;99.90;;;;;;4956161;28;20275;-83
2022/04/30 01:55:13;;;;;;;6.93;4.10;;;8.50;99.90;;;;;;4955695;29;20228;-82
2022/04/30 01:57:40;;;;;;;8.67;4.10;;;8.40;99.90;;;;;;4955636;29;20185;-82
2022/04/30 02:00:14;;;;;;;6.30;4.17;;;8.40;99.90;;;;;;4956899;28;20174;-83
2022/04/30 02:02:49;;;;;;;5.93;4.00;;;8.40;99.90;;;;;;4956157;28;20184;-83
2022/04/30 02:05:35;;;;;;;8.33;4.13;;;8.40;99.90;;;;;;4954940;28;20200;-83
2022/04/30 02:08:06;;;;;;;7.57;3.83;;;8.40;99.90;;;;;;4956809;28;20249;-83
2022/04/30 02:10:36;;;;;;;11.13;4.30;;;8.40;99.90;;;;;;4955356;29;20228;-83
2022/04/30 02:13:06;;;;;;;9.57;4.30;;;8.40;99.90;;;;;;4955293;29;20188;-83
2022/04/30 02:15:34;;;;;;;8.97;4.40;;;8.50;99.90;;;;;;4956521;28;20268;-84
2022/04/30 02:18:03;;;;;;;8.43;4.50;;;8.40;99.90;;;;;;4954866;29;20526;-82
2022/04/30 02:20:29;;;;;;;9.10;4.13;;;8.30;99.90;;;;;;4937654;29;20668;-83
2022/04/30 02:23:02;;;;;;;7.23;4.20;;;8.30;99.90;;;;;;4937521;29;20236;-83
2022/04/30 02:25:29;;;;;;;11.87;4.40;;;8.30;99.90;;;;;;4936038;29;20185;-83
2022/04/30 02:28:01;;;;;;;11.30;4.80;;;8.30;99.90;;;;;;4937358;29;20185;-83
2022/04/30 02:30:29;;;;;;;10.90;4.53;;;8.30;99.90;;;;;;4937028;29;20530;-83
2022/04/30 02:32:57;;;;;;;5.80;3.93;;;8.30;99.90;;;;;;4937341;29;20276;-83
2022/04/30 02:35:29;;;;;;;9.50;4.50;;;8.20;99.90;;;;;;4946206;29;20185;-83
2022/04/30 02:37:58;;;;;;;9.33;4.43;;;8.20;99.90;;;;;;4956091;28;20642;-83
2022/04/30 02:40:25;;;;;;;10.33;4.63;;;8.20;99.90;;;;;;4955230;29;20196;-83
2022/04/30 02:42:52;;;;;;;8.83;4.37;;;8.10;99.90;;;;;;4956376;28;20188;-83
2022/04/30 02:45:20;;;;;;;8.63;4.13;;;8.10;99.90;;;;;;4956353;28;20184;-85
2022/04/30 02:47:53;;;;;;;14.43;4.50;;;8.00;99.90;;;;;;4955650;28;20189;-85
2022/04/30 02:50:20;;;;;;;13.80;5.13;;;8.10;99.90;;;;;;4954677;29;20233;-83
2022/04/30 02:52:46;;;;;;;11.23;4.97;;;8.10;99.90;;;;;;4954179;29;20224;-83
2022/04/30 02:55:12;;;;;;;10.07;4.40;;;8.10;99.90;;;;;;4956441;28;20608;-82
2022/04/30 03:00:34;;;;;;;10.50;4.77;;;8.00;99.90;;;;;;4956292;29;20180;-83
2022/04/30 03:03:01;;;;;;;9.00;4.60;;;8.00;99.90;;;;;;4954212;29;20208;-83
2022/04/30 03:05:27;;;;;;;11.17;4.23;;;8.10;99.90;;;;;;4956101;28;20174;-82
2022/04/30 03:07:53;;;;;;;9.93;4.30;;;8.00;99.90;;;;;;4955594;28;20185;-82
2022/04/30 03:10:21;;;;;;;8.77;4.20;;;8.00;99.90;;;;;;4954534;29;20217;-83
2022/04/30 03:12:49;;;;;;;10.63;4.30;;;7.90;99.90;;;;;;4954643;29;20331;-83
2022/04/30 03:15:17;;;;;;;12.10;4.20;;;7.90;99.90;;;;;;4954737;29;20672;-84
2022/04/30 03:23:28;;;;;;;8.00;3.90;;;7.90;99.90;;;;;;4940605;29;20221;-83
2022/04/30 03:25:53;;;;;;;9.47;3.87;;;8.00;99.90;;;;;;4939383;29;20221;-82
2022/04/30 03:28:19;;;;;;;8.37;4.03;;;8.00;99.90;;;;;;4940334;29;20209;-82
2022/04/30 03:30:46;;;;;;;7.27;4.00;;;8.00;99.90;;;;;;4955022;29;20273;-84
2022/04/30 03:33:12;;;;;;;11.33;4.17;;;8.10;99.90;;;;;;4957414;29;20593;-82
2022/04/30 03:35:39;;;;;;;9.90;4.37;;;8.10;99.90;;;;;;4959531;28;20201;-82
2022/04/30 03:38:08;;;;;;;7.20;3.90;;;8.10;99.90;;;;;;4959537;28;20243;-82
2022/04/30 03:40:40;;;;;;;9.03;4.40;;;8.10;99.90;;;;;;4958144;29;20240;-82
2022/04/30 03:43:08;;;;;;;8.00;3.70;;;8.00;99.90;;;;;;4957529;29;20205;-82
2022/04/30 03:45:35;;;;;;;9.93;4.20;;;8.00;99.90;;;;;;4958159;29;20193;-83
2022/04/30 03:48:02;;;;;;;10.37;4.13;;;7.90;99.90;;;;;;4958141;29;20185;-82
2022/04/30 03:50:28;;;;;;;8.10;4.43;;;7.90;99.90;;;;;;4957210;29;20263;-82
2022/04/30 03:52:53;;;;;;;10.67;4.10;;;7.90;99.90;;;;;;4957935;29;20574;-82
2022/04/30 03:55:19;;;;;;;9.17;4.10;;;7.90;99.90;;;;;;4957780;29;20185;-82
2022/04/30 03:57:45;;;;;;;7.43;4.20;;;7.80;99.90;;;;;;4959134;28;20162;-82
2022/04/30 04:00:11;;;;;;;10.33;4.20;;;7.70;99.90;;;;;;4959211;28;20176;-83
2022/04/30 04:02:41;;;;;;;10.17;4.30;;;7.70;99.90;;;;;;4958758;28;20181;-82
2022/04/30 04:05:09;;;;;;;13.43;4.97;;;7.60;99.90;;;;;;4957746;29;20185;-82
2022/04/30 04:07:34;;;;;;;11.27;4.57;;;7.60;99.90;;;;;;4957633;29;20223;-82
2022/04/30 04:10:00;;;;;;;7.13;4.50;;;7.60;99.90;;;;;;4958736;28;20584;-82
2022/04/30 04:12:26;;;;;;;9.67;4.73;;;7.60;99.90;;;;;;4958876;28;20227;-82
2022/04/30 04:17:38;;;;;;;7.17;4.60;;;7.50;99.90;;;;;;4958673;29;20176;-83
2022/04/30 04:20:09;;;;;;;8.23;3.97;;;7.50;99.90;;;;;;4958784;28;20306;-82
2022/04/30 04:22:35;;;;;;;9.80;4.90;;;7.50;99.90;;;;;;4958231;28;20276;-82
2022/04/30 04:27:54;;;;;;;7.27;4.30;;;7.60;99.90;;;;;;4958126;28;20260;-82
2022/04/30 04:30:27;;;;;;;10.23;4.47;;;7.80;99.90;;;;;;4958611;28;20292;-82
2022/04/30 04:32:54;;;;;;;13.00;4.90;;;7.70;99.90;;;;;;4957859;28;20192;-82
2022/04/30 04:35:20;;;;;;;11.93;4.80;;;7.80;99.90;;;;;;4958658;28;20181;-82
2022/04/30 04:37:46;;;;;;;10.20;4.70;;;7.90;99.90;;;;;;4958414;28;20168;-83
2022/04/30 04:40:14;;;;;;;10.87;4.83;;;7.90;99.90;;;;;;4958543;28;20173;-83
2022/04/30 04:42:40;;;;;;;10.27;5.20;;;8.00;99.90;;;;;;4958577;28;20624;-83
2022/04/30 04:45:08;;;;;;;11.50;4.53;;;8.00;99.90;;;;;;4957736;28;20189;-82
2022/04/30 04:47:35;;;;;;;9.50;4.60;;;8.00;99.90;;;;;;4957939;28;20208;-83
2022/04/30 04:50:04;;;;;;;10.70;4.40;;;8.00;99.90;;;;;;4957425;28;20189;-83
2022/04/30 04:52:30;;;;;;;9.80;4.83;;;8.00;99.90;;;;;;4957986;28;20177;-83
2022/04/30 04:54:57;;;;;;;8.77;4.40;;;8.00;99.90;;;;;;4958330;28;20601;-82
2022/04/30 04:57:23;;;;;;;7.57;4.53;;;8.00;99.90;;;;;;4958022;28;20249;-82
2022/04/30 04:59:49;;;;;;;10.47;4.63;;;8.00;99.90;;;;;;4956690;29;20707;-82
2022/04/30 05:02:16;;;;;;;7.90;4.53;;;7.90;99.90;;;;;;4957289;28;20217;-82
2022/04/30 05:04:42;;;;;;;13.53;5.20;;;7.80;99.90;;;;;;4956825;29;20653;-82
2022/04/30 05:07:07;;;;;;;9.00;5.00;;;7.80;99.90;;;;;;4957813;29;20175;-82
2022/04/30 05:09:38;;;;;;;12.40;5.43;;;7.80;99.90;;;;;;4956644;29;20177;-83
2022/04/30 05:12:04;;;;;;;11.73;4.50;;;7.80;99.90;;;;;;4956221;29;20221;-82
2022/04/30 05:14:35;;;;;;;10.47;4.80;;;7.70;99.90;;;;;;4956367;29;20691;-82
2022/04/30 05:17:04;;;;;;;6.53;3.97;;;7.80;99.90;;;;;;4956241;29;20177;-82
2022/04/30 05:19:32;;;;;;;5.57;4.33;;;7.80;99.90;;;;;;4957116;28;20248;-83
2022/04/30 05:22:01;;;;;;;7.07;4.27;;;7.70;99.90;;;;;;4956980;28;20189;-82
2022/04/30 05:24:28;;;;;;;9.70;4.40;;;7.80;99.90;;;;;;4955672;29;20221;-82
2022/04/30 05:26:54;;;;;;;5.87;3.43;;;7.80;99.90;;;;;;4957311;28;20162;-82
2022/04/30 05:29:20;;;;;;;20.07;5.67;;;7.80;99.90;;;;;;4957556;28;20252;-82
2022/04/30 05:31:46;;;;;;;9.33;4.50;;;7.80;99.90;;;;;;4957125;28;20217;-82
2022/04/30 05:34:12;;;;;;;7.83;4.27;;;7.80;99.90;;;;;;4956986;28;20508;-82
2022/04/30 05:36:38;;;;;;;8.67;4.43;;;7.80;99.90;;;;;;4957335;28;20425;-82
2022/04/30 05:39:06;;;;;;;9.57;4.40;;;7.80;99.90;;;;;;4956668;28;20646;-82
2022/04/30 05:41:33;;;;;;;9.70;4.17;;;7.80;99.90;;;;;;4955019;29;20521;-82
2022/04/30 05:44:04;;;;;;;11.10;4.77;;;7.80;99.90;;;;;;4957309;28;20225;-81
2022/04/30 05:46:31;;;;;;;13.50;4.80;;;7.80;99.90;;;;;;4957014;28;20252;-82
2022/04/30 05:49:01;;;;;;;12.00;4.87;;;7.80;99.90;;;;;;4955978;29;20248;-82
2022/04/30 05:51:29;;;;;;;9.77;4.50;;;7.90;99.90;;;;;;4955479;29;20243;-82
2022/04/30 05:53:55;;;;;;;12.40;4.70;;;7.80;99.90;;;;;;4956860;28;20213;-82
2022/04/30 05:56:21;;;;;;;10.63;4.20;;;7.90;99.90;;;;;;4956913;29;20209;-82
2022/04/30 05:58:47;;;;;;;11.60;4.70;;;7.90;99.90;;;;;;4955499;29;20177;-82
2022/04/30 06:01:13;;;;;;;8.13;4.60;;;7.90;99.90;;;;;;4954920;29;20291;-82
2022/04/30 06:03:39;;;;;;;13.23;4.90;;;8.00;99.90;;;;;;4955508;29;20185;-82
2022/04/30 06:06:05;;;;;;;15.07;5.17;;;8.00;99.90;;;;;;4956864;28;20177;-82
2022/04/30 06:08:31;;;;;;;11.87;4.83;;;8.00;99.90;;;;;;4955307;29;20173;-82
2022/04/30 06:11:01;;;;;;;10.13;4.40;;;8.00;99.90;;;;;;4956689;28;20316;-82
2022/04/30 06:13:27;;;;;;;12.57;4.97;;;8.00;99.90;;;;;;4956142;28;20683;-82
2022/04/30 06:15:53;;;;;;;10.70;4.93;;;8.00;99.90;;;;;;4956576;28;20184;-82
2022/04/30 06:18:20;;;;;;;16.43;4.40;;;8.00;99.90;;;;;;4955860;29;20507;-82
2022/04/30 06:20:46;;;;;;;11.40;4.83;;;8.10;99.90;;;;;;4956124;28;20212;-83
2022/04/30 06:23:15;;;;;;;11.00;4.67;;;8.20;99.90;;;;;;4956281;28;20173;-81
2022/04/30 06:25:43;;;;;;;14.33;4.67;;;8.30;99.90;;;;;;4955273;29;20181;-82
2022/04/30 06:28:11;;;;;;;9.87;4.70;;;8.30;99.90;;;;;;4956598;28;20243;-82
2022/04/30 06:30:37;;;;;;;11.20;4.70;;;8.30;99.90;;;;;;4955086;29;20534;-82
2022/04/30 06:33:03;;;;;;;11.20;4.47;;;8.40;99.90;;;;;;4955622;28;20195;-81
2022/04/30 06:35:29;;;;;;;13.70;5.20;;;8.50;99.90;;;;;;4956345;28;20780;-82
2022/04/30 06:37:55;;;;;;;13.47;4.60;;;8.60;99.90;;;;;;4956186;28;20204;-81
2022/04/30 06:40:20;;;;;;;13.13;4.87;;;8.60;99.90;;;;;;4956459;28;20184;-82
2022/04/30 06:42:47;;;;;;;14.43;4.77;;;8.70;99.90;;;;;;4956235;28;20177;-81
2022/04/30 06:45:14;;;;;;;11.93;4.23;;;8.70;99.90;;;;;;4956224;28;20185;-81
2022/04/30 06:47:42;;;;;;;8.53;4.20;;;8.70;99.90;;;;;;4955579;29;20264;-82
2022/04/30 06:50:09;;;;;;;6.90;4.43;;;8.70;99.90;;;;;;4955938;28;20169;-81
2022/04/30 06:52:35;;;;;;;12.60;4.13;;;8.70;99.90;;;;;;4955946;28;20170;-82
2022/04/30 06:58:08;;;;;;;11.93;5.30;;;8.90;99.90;;;;;;4879173;29;20197;-82
2022/04/30 07:03:35;;;;;;;12.87;3.80;;;9.20;99.90;;;;;;4911869;29;20530;-85
2022/04/30 07:06:03;;;;;;;15.00;4.27;;;9.30;99.90;;;;;;4955756;28;20185;-83
2022/04/30 07:08:32;;;;;;;9.93;3.50;;;9.40;99.90;;;;;;4955768;28;20244;-81
2022/04/30 07:10:58;;;;;;;6.43;3.87;;;9.40;99.90;;;;;;4955734;28;20217;-83
2022/04/30 07:13:24;;;;;;;6.97;3.73;;;9.40;99.90;;;;;;4957777;28;20184;-82
2022/04/30 07:15:50;;;;;;;8.07;3.80;;;9.50;99.90;;;;;;4959590;28;20523;-81
2022/04/30 07:18:15;;;;;;;8.03;3.60;;;9.50;99.90;;;;;;4955573;28;20169;-81
2022/04/30 07:20:42;;;;;;;12.47;3.83;;;9.50;99.90;;;;;;4955696;28;20181;-82
2022/04/30 07:23:08;;;;;;;9.63;3.70;;;9.50;99.90;;;;;;4954613;29;20186;-80
2022/04/30 07:25:34;;;;;;;9.30;3.40;;;9.60;99.90;;;;;;4956210;28;20184;-81
2022/04/30 07:27:59;;;;;;;9.57;3.37;;;9.70;99.90;;;;;;4957783;28;20193;-81
2022/04/30 07:30:25;;;;;;;10.10;3.20;;;9.70;99.90;;;;;;4955664;29;20240;-81
2022/04/30 07:32:51;;;;;;;12.40;3.67;;;9.70;99.90;;;;;;4957713;28;20244;-82
2022/04/30 07:35:17;;;;;;;6.63;3.43;;;9.80;99.90;;;;;;4955035;28;20612;-81
2022/04/30 07:37:42;;;;;;;6.30;3.67;;;9.80;99.90;;;;;;4960240;28;20181;-81
2022/04/30 07:40:09;;;;;;;6.77;3.53;;;9.90;99.90;;;;;;4961508;28;20192;-81
2022/04/30 07:42:34;;;;;;;6.60;3.00;;;9.90;99.90;;;;;;4955468;28;20189;-81
2022/04/30 07:45:00;;;;;;;9.10;3.10;;;10.00;99.90;;;;;;4955429;28;20328;-82
2022/04/30 07:47:26;;;;;;;6.00;2.90;;;10.10;99.90;;;;;;4955235;28;20198;-81
2022/04/30 07:49:52;;;;;;;11.77;3.67;;;10.10;99.90;;;;;;4955160;28;20173;-81
2022/04/30 07:52:18;;;;;;;10.20;4.03;;;10.10;99.90;;;;;;4954951;28;20205;-81
2022/04/30 07:54:44;;;;;;;7.33;3.07;;;10.20;99.90;;;;;;4955316;28;20187;-82
2022/04/30 07:57:10;;;;;;;6.63;2.60;;;10.30;99.90;;;;;;4953710;29;20221;-80
2022/04/30 07:59:36;;;;;;;6.67;2.73;;;10.40;99.90;;;;;;4955416;28;20181;-81
2022/04/30 08:02:04;;;;;;;6.57;3.20;;;10.70;99.90;;;;;;4954708;28;20185;-80
2022/04/30 08:04:32;;;;;;;6.97;3.20;;;10.80;99.90;;;;;;4957209;29;20596;-81
2022/04/30 08:06:59;;;;;;;12.53;3.57;;;11.10;99.90;;;;;;4958228;28;20197;-82
2022/04/30 08:09:25;;;;;;;10.52;3.10;;;11.20;99.90;;;;;;4958181;28;20201;-82
2022/04/30 08:11:51;;;;;;;8.83;3.17;;;11.30;99.90;;;;;;4957393;29;20240;-82
2022/04/30 08:14:16;;;;;;;6.15;2.80;;;11.30;99.90;;;;;;4951128;28;20208;-82
2022/04/30 08:16:56;;;;;;;9.23;3.40;;;11.40;99.90;;;;;;4950691;29;20273;-81
2022/04/30 08:19:22;;;;;;;9.50;2.90;;;11.40;99.90;;;;;;4958351;29;20184;-81
2022/04/30 08:21:48;;;;;;;14.20;3.35;;;11.40;99.90;;;;;;4957830;28;20189;-81
2022/04/30 08:24:15;;;;;;;8.37;3.40;;;11.40;99.90;;;;;;4956658;28;20631;-82
2022/04/30 08:26:41;;;;;;;6.87;2.90;;;11.30;99.90;;;;;;4952303;28;20204;-81
2022/04/30 08:29:08;;;;;;;6.70;3.17;;;11.30;99.90;;;;;;4940144;28;20625;-82
2022/04/30 08:31:41;;;;;;;7.38;3.50;;;11.20;99.90;;;;;;4952835;28;20252;-81
2022/04/30 08:34:10;;;;;;;4.82;2.90;;;11.20;99.90;;;;;;4955581;29;20189;-81
2022/04/30 08:36:37;;;;;;;8.20;3.00;;;11.20;99.90;;;;;;4956413;29;20181;-81
2022/04/30 08:39:05;;;;;;;8.45;3.30;;;11.20;99.90;;;;;;4943638;29;20174;-82
2022/04/30 08:41:30;;;;;;;10.30;3.13;;;11.30;99.90;;;;;;4956787;29;20181;-81
2022/04/30 08:43:56;;;;;;;7.40;3.25;;;11.30;99.90;;;;;;4958155;28;20237;-82
2022/04/30 08:46:22;;;;;;;7.28;2.88;;;11.30;99.90;;;;;;4955246;28;20185;-83
2022/04/30 08:48:48;;;;;;;9.55;3.40;;;11.30;99.90;;;;;;4957414;28;20648;-82
2022/04/30 08:51:17;;;;;;;9.63;3.22;;;11.40;99.90;;;;;;4957347;28;20273;-82
2022/04/30 08:53:43;;;;;;;6.20;2.97;;;11.50;99.90;;;;;;4956887;28;20184;-82
2022/04/30 08:56:09;;;;;;;6.22;3.08;;;11.60;99.90;;;;;;4955348;28;20628;-82
2022/04/30 08:58:35;;;;;;;13.88;3.45;;;11.60;99.90;;;;;;4950894;29;20189;-82
2022/04/30 09:01:03;;;;;;;7.97;3.20;;;11.70;99.90;;;;;;4956225;29;20628;-81
2022/04/30 09:03:35;;;;;;;7.60;2.90;;;11.80;99.90;;;;;;4947404;28;20185;-82
2022/04/30 09:06:01;;;;;;;8.95;3.47;;;11.70;99.90;;;;;;4951736;29;20209;-82
2022/04/30 09:08:27;;;;;;;10.98;3.55;;;11.80;99.90;;;;;;4957603;28;20181;-82
2022/04/30 09:11:04;;;;;;;6.47;3.22;;;11.90;99.90;;;;;;4957711;28;20212;-83
2022/04/30 09:13:46;;;;;;;12.02;3.80;;;12.00;99.90;;;;;;4956337;28;20177;-82
2022/04/30 09:16:21;;;;;;;10.55;3.78;;;12.20;99.90;;;;;;4955974;29;20185;-84
2022/04/30 09:18:48;;;;;;;7.15;3.60;;;12.20;99.90;;;;;;4946522;29;20189;-83
2022/04/30 09:21:15;;;;;;;9.40;3.22;;;12.20;99.90;;;;;;4955319;29;20177;-83
2022/04/30 09:23:43;;;;;;;6.82;3.35;;;12.30;99.90;;;;;;4957027;28;20217;-82
2022/04/30 09:26:09;;;;;;;7.75;3.42;;;12.40;99.90;;;;;;4951648;28;20181;-84
2022/04/30 09:28:36;;;;;;;5.13;3.40;;;12.50;99.90;;;;;;4952730;28;20632;-84
2022/04/30 09:31:14;;;;;;;8.70;3.38;;;12.70;99.90;;;;;;4939342;29;20653;-83
2022/04/30 09:33:59;;;;;;;5.50;3.30;;;12.90;99.90;;;;;;4952548;29;20185;-83
2022/04/30 09:39:17;;;;;;;8.52;3.45;;;13.10;99.90;;;;;;4956940;29;20236;-84
2022/04/30 09:41:44;;;;;;;8.10;3.13;;;13.00;99.90;;;;;;4956141;29;20193;-84
2022/04/30 09:44:14;;;;;;;10.82;3.28;;;13.10;99.90;;;;;;4954594;29;20574;-83
2022/04/30 09:46:40;;;;;;;6.20;2.75;;;13.10;99.90;;;;;;4956035;28;20185;-83
2022/04/30 09:54:39;;;;;;;10.68;3.00;;;12.80;99.90;;;;;;4957360;29;20268;-83
2022/04/30 09:57:07;;;;;;;8.75;3.03;;;12.80;99.90;;;;;;4956402;29;20201;-82
2022/04/30 09:59:38;;;;;;;8.00;3.08;;;12.90;99.90;;;;;;4955534;29;20517;-84
2022/04/30 10:02:06;;;;;;;5.93;3.30;;;12.80;99.90;;;;;;4955331;29;20177;-83
2022/04/30 10:04:37;;;;;;;12.98;3.47;;;12.90;99.90;;;;;;4955540;29;20616;-83
2022/04/30 10:07:05;;;;;;;7.50;2.88;;;13.00;99.90;;;;;;4955537;29;20177;-84
2022/04/30 10:09:38;;;;;;;9.30;2.97;;;13.20;99.90;;;;;;4955712;29;20213;-83
2022/04/30 10:12:15;;;;;;;5.18;2.53;;;13.30;99.90;;;;;;4956521;28;20673;-83
2022/04/30 10:14:51;;;;;;;6.20;2.65;;;13.50;99.90;;;;;;4955346;29;20530;-83
2022/04/30 10:17:25;;;;;;;6.05;2.80;;;13.50;99.90;;;;;;4956488;29;20562;-86
2022/04/30 10:19:59;;;;;;;9.07;2.88;;;13.60;99.90;;;;;;4948638;29;20170;-84
2022/04/30 10:22:26;;;;;;;8.52;3.20;;;13.50;99.90;;;;;;4936033;29;20169;-85
2022/04/30 10:24:57;;;;;;;8.43;2.70;;;13.50;99.90;;;;;;4944628;29;20248;-83
2022/04/30 10:27:24;;;;;;;6.93;2.70;;;13.40;99.90;;;;;;4956302;28;20173;-83
2022/04/30 10:29:58;;;;;;;8.65;2.90;;;13.40;99.90;;;;;;4956477;28;20181;-86
2022/04/30 10:32:35;;;;;;;8.25;2.63;;;13.40;99.90;;;;;;4955219;29;20246;-84
2022/04/30 10:35:03;;;;;;;10.77;3.00;;;13.50;99.90;;;;;;4955980;28;20176;-84
2022/04/30 10:37:29;;;;;;;9.90;3.05;;;13.60;99.90;;;;;;4956341;28;20185;-85
2022/04/30 10:40:00;;;;;;;5.75;2.88;;;13.60;99.90;;;;;;4955942;28;20243;-86
2022/04/30 10:42:39;;;;;;;7.72;3.17;;;13.90;99.90;;;;;;4954997;29;20181;-84
2022/04/30 10:45:05;;;;;;;8.73;3.05;;;14.10;99.50;;;;;;4956508;28;20646;-84
2022/04/30 10:47:31;;;;;;;7.68;2.58;;;14.20;99.90;;;;;;4954095;29;20183;-85
2022/04/30 10:49:56;;;;;;;13.98;3.22;;;14.30;99.90;;;;;;4954166;29;20193;-84
2022/04/30 10:52:25;;;;;;;7.10;2.90;;;14.20;99.90;;;;;;4954409;29;20224;-83
2022/04/30 10:54:54;;;;;;;7.93;2.60;;;14.20;99.90;;;;;;4954394;29;20188;-84
2022/04/30 10:57:21;;;;;;;7.03;2.80;;;14.30;98.70;;;;;;4954630;29;20185;-84
2022/04/30 11:00:01;;;;;;;7.13;3.05;;;14.30;98.30;;;;;;4956179;28;20169;-84
2022/04/30 11:02:32;;;;;;;6.13;2.42;;;14.10;99.00;;;;;;4954102;29;20184;-84
2022/04/30 11:04:58;;;;;;;9.13;2.60;;;14.20;99.90;;;;;;4954960;29;20190;-83
2022/04/30 11:07:28;;;;;;;7.40;2.50;;;14.40;99.80;;;;;;4956125;28;20644;-84
2022/04/30 11:09:54;;;;;;;7.70;2.53;;;14.50;99.50;;;;;;4954604;29;20185;-86
2022/04/30 11:12:19;;;;;;;14.02;3.15;;;14.40;98.60;;;;;;4954969;28;20743;-84
2022/04/30 11:14:47;;;;;;;6.78;2.63;;;14.50;99.80;;;;;;4955388;29;20181;-84
2022/04/30 11:17:13;;;;;;;4.22;2.75;;;14.50;98.20;;;;;;4955604;28;20185;-85
2022/04/30 11:19:41;;;;;;;4.88;2.30;;;14.70;98.80;;;;;;4938364;29;20185;-85
2022/04/30 11:22:09;;;;;;;8.23;2.60;;;14.90;98.20;;;;;;4942184;29;20181;-84
2022/04/30 11:24:39;;;;;;;5.93;2.70;;;14.80;97.90;;;;;;4954659;29;20185;-83
2022/04/30 11:27:08;;;;;;;11.40;2.88;;;14.90;98.30;;;;;;4954459;29;20182;-84
2022/04/30 11:29:48;;;;;;;6.72;2.40;;;15.00;97.70;;;;;;4954532;29;20635;-85
2022/04/30 11:32:23;;;;;;;7.18;2.53;;;15.20;96.90;;;;;;4954639;28;20556;-83
2022/04/30 11:34:50;;;;;;;7.43;2.70;;;15.10;96.40;;;;;;4954746;29;20184;-83
2022/04/30 11:37:16;;;;;;;7.13;2.92;;;15.10;97.60;;;;;;4954595;28;20189;-83
2022/04/30 11:39:42;;;;;;;5.82;2.72;;;15.20;96.30;;;;;;4957870;29;20184;-83
2022/04/30 11:42:09;;;;;;;7.82;2.63;;;15.20;96.50;;;;;;4959426;28;20174;-83
2022/04/30 11:44:35;;;;;;;5.90;2.65;;;15.20;95.40;;;;;;4959331;28;20196;-85
2022/04/30 11:47:10;;;;;;;5.70;2.80;;;15.20;97.00;;;;;;4959196;29;20169;-82
2022/04/30 11:49:37;;;;;;;6.15;3.10;;;15.00;96.00;;;;;;4957270;29;20195;-83
2022/04/30 11:52:05;;;;;;;5.85;2.75;;;14.80;96.10;;;;;;4957555;29;20641;-85
2022/04/30 11:54:38;;;;;;;10.65;2.85;;;14.90;96.20;;;;;;4952374;29;20523;-82
2022/04/30 11:57:05;;;;;;;12.18;2.65;;;15.20;97.00;;;;;;4955868;29;20185;-82
2022/04/30 11:59:32;;;;;;;6.25;2.67;;;15.50;95.80;;;;;;4958998;28;20177;-86
2022/04/30 12:02:04;;;;;;;9.98;2.72;;;15.90;96.40;;;;;;4955640;29;20204;-84
2022/04/30 12:04:37;;;;;;;4.18;1.80;;;16.00;94.80;;;;;;4956463;29;20173;-82
2022/04/30 12:07:05;;;;;;;6.50;2.60;;;15.90;92.70;;;;;;4957343;29;20181;-84
2022/04/30 12:09:39;;;;;;;5.47;2.30;;;15.80;92.00;;;;;;4958601;28;20252;-83
2022/04/30 12:12:19;;;;;;;3.47;2.00;;;15.80;93.60;;;;;;4957275;29;20216;-85
2022/04/30 12:14:53;;;;;;;4.80;2.05;;;16.00;93.50;;;;;;4958560;28;20666;-81
2022/04/30 12:17:40;;;;;;;6.88;2.10;;;16.20;93.10;;;;;;4957279;29;20233;-81
2022/04/30 12:26:03;;;;;;;5.95;2.45;;;15.60;93.10;;;;;;4957676;29;20188;-83
2022/04/30 12:28:30;;;;;;;3.88;2.10;;;15.60;94.10;;;;;;4958700;28;20173;-84
2022/04/30 12:30:55;;;;;;;6.28;2.38;;;15.80;92.90;;;;;;4956963;29;20212;-85
2022/04/30 12:33:22;;;;;;;6.70;2.45;;;16.00;92.80;;;;;;4957181;29;20180;-83
2022/04/30 12:35:56;;;;;;;4.10;2.33;;;15.90;93.10;;;;;;4957263;29;20181;-85
2022/04/30 12:38:21;;;;;;;4.53;2.00;;;16.00;92.80;;;;;;4958477;28;20225;-83
2022/04/30 12:40:47;;;;;;;3.72;2.13;;;16.10;93.40;;;;;;4957387;29;20182;-84
2022/04/30 12:43:17;;;;;;;7.43;1.98;;;16.40;94.50;;;;;;4957266;29;20490;-84
2022/04/30 12:45:44;;;;;;;7.55;2.00;;;16.60;91.30;;;;;;4958379;28;20264;-85
2022/04/30 12:48:10;;;;;;;2.88;1.98;;;16.70;93.20;;;;;;4957844;28;20208;-83
2022/04/30 12:50:37;;;;;;;4.63;1.80;;;16.80;91.90;;;;;;4957297;29;20708;-85
2022/04/30 12:53:09;;;;;;;4.20;2.22;;;16.80;92.40;;;;;;4957886;28;20193;-84
2022/04/30 12:55:39;;;;;;;6.50;2.17;;;17.10;92.10;;;;;;4958424;28;20166;-85
2022/04/30 12:58:06;;;;;;;4.35;1.70;;;17.30;87.50;;;;;;4956422;29;20200;-83
2022/04/30 13:00:33;;;;;;;5.88;2.08;;;16.90;88.10;;;;;;4956941;28;20182;-85
2022/04/30 13:03:20;;;;;;;2.63;1.58;;;16.70;90.80;;;;;;4955485;28;20260;-83
2022/04/30 13:05:47;;;;;;;3.60;1.98;;;16.60;90.00;;;;;;4956107;29;20197;-82
2022/04/30 13:08:13;;;;;;;2.90;1.50;;;16.40;90.00;;;;;;4957625;28;20205;-81
2022/04/30 13:13:31;;;;;;;6.07;1.30;;;16.30;89.30;;;;;;4957214;29;20679;-81
2022/04/30 13:16:07;;;;;;;3.80;1.45;;;16.30;88.20;;;;;;4957000;28;20272;-82
2022/04/30 13:18:38;;;;;;;5.28;1.60;;;16.60;87.50;;;;;;4938107;29;20562;-84
2022/04/30 13:21:04;;;;;;;4.15;1.23;;;16.50;89.90;;;;;;4937260;29;20178;-83
2022/04/30 13:23:31;;;;;;;4.72;1.30;;;16.60;89.50;;;;;;4937293;29;20170;-82
2022/04/30 13:25:58;;;;;;;11.20;1.65;;;16.60;90.40;;;;;;4937127;29;20276;-82
2022/04/30 13:28:26;;;;;;;4.55;1.80;;;16.80;90.90;;;;;;4938056;29;20525;-83
2022/04/30 13:30:52;;;;;;;3.50;1.60;;;16.90;89.60;;;;;;4938283;29;20289;-82
2022/04/30 13:33:19;;;;;;;6.72;1.73;;;17.00;89.30;;;;;;4952765;29;20212;-83
2022/04/30 13:35:44;;;;;;;5.63;1.65;;;17.10;88.60;;;;;;4957580;28;20173;-84
2022/04/30 13:38:10;;;;;;;8.68;1.95;;;17.00;87.00;;;;;;4956120;29;20528;-85
2022/04/30 13:40:36;;;;;;;8.43;2.30;;;17.10;90.70;;;;;;4955933;29;20272;-85
2022/04/30 13:43:02;;;;;;;8.45;1.80;;;17.20;89.20;;;;;;4955986;29;20200;-86